createdAt,value
2018-09-26T00:00:18.069Z,7.68
2018-09-26T00:01:18.043Z,7.64
2018-09-26T00:02:18.033Z,7.60
2018-09-26T00:03:18.035Z,7.61
2018-09-26T00:04:18.043Z,7.64
2018-09-26T00:05:18.004Z,7.63
2018-09-26T00:06:17.991Z,7.67
2018-09-26T00:07:17.979Z,7.57
2018-09-26T00:08:17.969Z,7.69
2018-09-26T00:09:17.956Z,7.63
2018-09-26T00:10:17.959Z,7.52
2018-09-26T00:11:17.933Z,7.50
2018-09-26T00:12:17.925Z,7.63
2018-09-26T00:13:17.913Z,7.58
2018-09-26T00:14:17.901Z,7.52
2018-09-26T00:15:17.904Z,7.50
2018-09-26T00:16:17.881Z,7.50
2018-09-26T00:17:17.867Z,7.42
2018-09-26T00:18:17.858Z,7.53
2018-09-26T00:19:17.847Z,7.39
2018-09-26T00:20:17.850Z,7.40
2018-09-26T00:21:17.847Z,7.45
2018-09-26T00:22:17.814Z,7.46
2018-09-26T00:23:17.803Z,7.40
2018-09-26T00:24:17.794Z,7.37
2018-09-26T00:25:17.781Z,7.39
2018-09-26T00:26:17.771Z,7.34
2018-09-26T00:27:17.772Z,7.37
2018-09-26T00:28:17.748Z,7.32
2018-09-26T00:29:17.735Z,7.32
2018-09-26T00:30:17.727Z,7.31
2018-09-26T00:31:17.731Z,7.25
2018-09-26T00:32:17.702Z,7.25
2018-09-26T00:33:17.693Z,7.24
2018-09-26T00:34:17.680Z,7.16
2018-09-26T00:35:17.669Z,7.23
2018-09-26T00:36:17.823Z,7.30
2018-09-26T00:37:17.663Z,7.21
2018-09-26T00:38:17.659Z,7.20
2018-09-26T00:39:17.628Z,7.30
2018-09-26T00:40:17.635Z,7.30
2018-09-26T00:41:17.607Z,7.23
2018-09-26T00:42:17.594Z,7.21
2018-09-26T00:43:17.584Z,7.27
2018-09-26T00:44:17.591Z,7.23
2018-09-26T00:45:17.563Z,7.23
2018-09-26T00:46:17.550Z,7.30
2018-09-26T00:47:17.540Z,7.23
2018-09-26T00:48:17.526Z,7.21
2018-09-26T00:49:17.516Z,7.25
2018-09-26T00:50:17.519Z,7.21
2018-09-26T00:51:17.496Z,7.34
2018-09-26T00:52:17.486Z,7.30
2018-09-26T00:53:17.471Z,7.25
2018-09-26T00:54:17.478Z,7.24
2018-09-26T00:55:17.452Z,7.20
2018-09-26T00:56:17.441Z,7.20
2018-09-26T00:57:17.427Z,7.31
2018-09-26T00:58:17.416Z,7.23
2018-09-26T00:59:17.446Z,7.31
2018-09-26T01:00:17.421Z,7.28
2018-09-26T01:01:17.386Z,7.28
2018-09-26T01:02:17.375Z,7.35
2018-09-26T01:03:17.362Z,7.34
2018-09-26T01:04:17.351Z,7.24
2018-09-26T01:05:17.343Z,7.32
2018-09-26T01:06:17.343Z,7.39
2018-09-26T01:07:17.317Z,7.32
2018-09-26T01:08:17.308Z,7.32
2018-09-26T01:09:17.298Z,7.32
2018-09-26T01:10:17.285Z,7.23
2018-09-26T01:11:17.294Z,7.24
2018-09-26T01:12:17.267Z,7.27
2018-09-26T01:13:17.252Z,7.32
2018-09-26T01:14:17.243Z,7.27
2018-09-26T01:15:17.230Z,7.35
2018-09-26T01:16:17.219Z,7.31
2018-09-26T01:17:17.239Z,7.35
2018-09-26T01:18:17.197Z,7.28
2018-09-26T01:19:17.190Z,7.32
2018-09-26T01:20:17.177Z,7.17
2018-09-26T01:21:17.179Z,7.28
2018-09-26T01:22:17.166Z,7.25
2018-09-26T01:23:17.148Z,7.21
2018-09-26T01:24:17.131Z,7.23
2018-09-26T01:25:17.122Z,7.17
2018-09-26T01:26:17.111Z,7.28
2018-09-26T01:27:17.112Z,7.24
2018-09-26T01:28:17.103Z,7.20
2018-09-26T01:29:17.078Z,7.21
2018-09-26T01:30:17.065Z,7.25
2018-09-26T01:31:17.058Z,7.20
2018-09-26T01:32:17.066Z,7.25
2018-09-26T01:33:17.035Z,7.20
2018-09-26T01:34:17.020Z,7.24
2018-09-26T01:35:17.011Z,7.25
2018-09-26T01:36:17.002Z,7.20
2018-09-26T01:37:16.987Z,7.25
2018-09-26T01:38:16.993Z,7.23
2018-09-26T01:39:16.982Z,7.24
2018-09-26T01:40:16.959Z,7.23
2018-09-26T01:41:16.979Z,7.25
2018-09-26T01:42:16.931Z,7.21
2018-09-26T01:43:16.937Z,7.20
2018-09-26T01:44:16.909Z,7.13
2018-09-26T01:45:16.915Z,7.15
2018-09-26T01:46:16.888Z,7.16
2018-09-26T01:47:16.883Z,7.17
2018-09-26T01:48:16.866Z,7.25
2018-09-26T01:49:16.874Z,7.20
2018-09-26T01:50:16.846Z,7.21
2018-09-26T01:51:16.833Z,7.21
2018-09-26T01:52:16.822Z,7.16
2018-09-26T01:53:16.811Z,7.27
2018-09-26T01:54:16.816Z,7.25
2018-09-26T01:55:16.792Z,7.21
2018-09-26T01:56:16.783Z,7.15
2018-09-26T01:57:16.778Z,7.21
2018-09-26T01:58:16.757Z,7.20
2018-09-26T01:59:16.760Z,7.21
2018-09-26T02:00:16.737Z,7.28
2018-09-26T02:01:16.727Z,7.20
2018-09-26T02:02:16.715Z,7.24
2018-09-26T02:03:16.705Z,7.24
2018-09-26T02:04:16.711Z,7.23
2018-09-26T02:05:16.680Z,7.25
2018-09-26T02:06:16.674Z,7.21
2018-09-26T02:07:16.661Z,7.23
2018-09-26T02:08:16.663Z,7.16
2018-09-26T02:09:16.651Z,7.21
2018-09-26T02:10:16.650Z,7.24
2018-09-26T02:11:16.615Z,7.24
2018-09-26T02:12:16.605Z,7.23
2018-09-26T02:13:16.591Z,7.15
2018-09-26T02:14:16.582Z,7.20
2018-09-26T02:15:17.578Z,7.25
2018-09-26T02:16:16.573Z,7.28
2018-09-26T02:17:16.550Z,7.21
2018-09-26T02:18:16.538Z,7.25
2018-09-26T02:19:16.528Z,7.21
2018-09-26T02:20:16.517Z,7.17
2018-09-26T02:21:16.505Z,7.21
2018-09-26T02:22:16.507Z,7.16
2018-09-26T02:23:16.487Z,7.23
2018-09-26T02:24:16.480Z,7.10
2018-09-26T02:25:16.464Z,7.10
2018-09-26T02:26:16.470Z,7.09
2018-09-26T02:27:16.439Z,7.12
2018-09-26T02:28:16.428Z,7.12
2018-09-26T02:29:16.423Z,7.12
2018-09-26T02:30:16.408Z,7.13
2018-09-26T02:31:16.396Z,7.10
2018-09-26T02:32:16.402Z,7.12
2018-09-26T02:33:16.372Z,7.16
2018-09-26T02:34:16.386Z,7.10
2018-09-26T02:35:16.350Z,7.10
2018-09-26T02:36:16.339Z,6.97
2018-09-26T02:37:16.328Z,7.03
2018-09-26T02:38:16.342Z,7.03
2018-09-26T02:39:16.308Z,6.99
2018-09-26T02:40:16.297Z,6.99
2018-09-26T02:41:16.290Z,6.91
2018-09-26T02:42:16.280Z,6.85
2018-09-26T02:43:16.264Z,6.94
2018-09-26T02:44:16.289Z,6.88
2018-09-26T02:45:16.267Z,6.92
2018-09-26T02:46:16.232Z,6.79
2018-09-26T02:47:16.219Z,6.74
2018-09-26T02:48:16.208Z,6.76
2018-09-26T02:49:16.202Z,6.70
2018-09-26T02:50:16.202Z,6.79
2018-09-26T02:51:16.198Z,6.71
2018-09-26T02:52:16.166Z,6.76
2018-09-26T02:53:16.155Z,6.67
2018-09-26T02:54:16.143Z,6.67
2018-09-26T02:55:16.132Z,6.64
2018-09-26T02:56:16.135Z,6.62
2018-09-26T02:57:16.119Z,6.67
2018-09-26T02:58:16.098Z,6.64
2018-09-26T02:59:16.091Z,6.67
2018-09-26T03:00:16.080Z,6.62
2018-09-26T03:01:16.092Z,6.64
2018-09-26T03:02:16.055Z,6.70
2018-09-26T03:03:16.045Z,6.67
2018-09-26T03:04:16.036Z,6.61
2018-09-26T03:05:16.024Z,6.62
2018-09-26T03:06:16.033Z,6.59
2018-09-26T03:07:16.014Z,6.64
2018-09-26T03:08:15.988Z,6.64
2018-09-26T03:09:15.982Z,6.52
2018-09-26T03:10:15.969Z,6.58
2018-09-26T03:11:15.959Z,6.52
2018-09-26T03:12:15.958Z,6.52
2018-09-26T03:13:15.936Z,6.56
2018-09-26T03:14:15.922Z,6.46
2018-09-26T03:15:15.913Z,6.58
2018-09-26T03:16:15.904Z,6.44
2018-09-26T03:17:15.940Z,6.46
2018-09-26T03:18:15.882Z,6.46
2018-09-26T03:19:15.870Z,6.54
2018-09-26T03:20:15.858Z,6.52
2018-09-26T03:21:15.892Z,6.49
2018-09-26T03:22:15.835Z,6.46
2018-09-26T03:23:15.841Z,6.48
2018-09-26T03:24:15.827Z,6.51
2018-09-26T03:25:15.803Z,6.40
2018-09-26T03:26:15.795Z,6.40
2018-09-26T03:27:15.780Z,6.48
2018-09-26T03:28:15.770Z,6.43
2018-09-26T03:29:15.773Z,6.46
2018-09-26T03:30:15.762Z,6.46
2018-09-26T03:31:15.737Z,6.37
2018-09-26T03:32:15.765Z,6.34
2018-09-26T03:33:15.718Z,6.25
2018-09-26T03:34:15.720Z,6.28
2018-09-26T03:35:15.694Z,6.33
2018-09-26T03:36:15.682Z,6.34
2018-09-26T03:37:15.673Z,6.31
2018-09-26T03:38:15.664Z,6.37
2018-09-26T03:39:15.651Z,6.33
2018-09-26T03:40:15.664Z,6.25
2018-09-26T03:41:15.631Z,6.21
2018-09-26T03:42:15.618Z,6.28
2018-09-26T03:43:15.606Z,6.22
2018-09-26T03:44:15.594Z,6.28
2018-09-26T03:45:15.585Z,6.21
2018-09-26T03:46:15.587Z,6.17
2018-09-26T03:47:15.562Z,6.15
2018-09-26T03:48:15.554Z,6.11
2018-09-26T03:49:15.543Z,6.12
2018-09-26T03:50:15.530Z,6.09
2018-09-26T03:51:15.537Z,6.14
2018-09-26T03:52:15.509Z,6.11
2018-09-26T03:53:15.498Z,6.12
2018-09-26T03:54:15.486Z,6.08
2018-09-26T03:55:15.476Z,6.11
2018-09-26T03:56:15.466Z,6.01
2018-09-26T03:57:15.495Z,6.01
2018-09-26T03:58:15.443Z,5.99
2018-09-26T03:59:15.432Z,5.99
2018-09-26T04:00:15.423Z,6.00
2018-09-26T04:01:15.424Z,6.00
2018-09-26T04:02:15.401Z,5.97
2018-09-26T04:03:15.401Z,6.01
2018-09-26T04:04:15.378Z,6.00
2018-09-26T04:05:15.368Z,5.94
2018-09-26T04:06:15.356Z,5.99
2018-09-26T04:07:15.359Z,5.91
2018-09-26T04:08:15.336Z,5.85
2018-09-26T04:09:15.326Z,5.97
2018-09-26T04:10:15.314Z,5.94
2018-09-26T04:11:15.323Z,5.93
2018-09-26T04:12:15.292Z,5.96
2018-09-26T04:13:15.280Z,5.93
2018-09-26T04:14:15.270Z,5.89
2018-09-26T04:15:15.257Z,5.93
2018-09-26T04:16:15.262Z,5.91
2018-09-26T04:17:15.249Z,5.96
2018-09-26T04:18:15.225Z,5.91
2018-09-26T04:19:15.224Z,5.91
2018-09-26T04:20:15.262Z,6.00
2018-09-26T04:21:15.191Z,5.99
2018-09-26T04:22:15.182Z,5.97
2018-09-26T04:23:15.183Z,5.89
2018-09-26T04:24:15.159Z,5.90
2018-09-26T04:25:15.166Z,5.96
2018-09-26T04:26:15.220Z,5.91
2018-09-26T04:27:15.243Z,5.90
2018-09-26T04:28:15.114Z,5.94
2018-09-26T04:29:15.113Z,5.86
2018-09-26T04:30:15.149Z,5.83
2018-09-26T04:31:15.096Z,5.86
2018-09-26T04:32:15.073Z,5.97
2018-09-26T04:33:15.346Z,5.85
2018-09-26T04:34:15.048Z,5.93
2018-09-26T04:35:15.052Z,5.90
2018-09-26T04:36:15.028Z,5.89
2018-09-26T04:37:15.020Z,5.89
2018-09-26T04:38:15.005Z,5.91
2018-09-26T04:39:15.007Z,5.86
2018-09-26T04:40:15.001Z,5.94
2018-09-26T04:41:14.974Z,5.81
2018-09-26T04:42:14.989Z,5.85
2018-09-26T04:43:15.011Z,5.83
2018-09-26T04:44:14.942Z,5.90
2018-09-26T04:45:14.931Z,5.83
2018-09-26T04:46:14.931Z,5.93
2018-09-26T04:47:14.908Z,5.97
2018-09-26T04:48:14.910Z,5.94
2018-09-26T04:49:14.888Z,5.86
2018-09-26T04:50:14.888Z,5.91
2018-09-26T04:51:14.882Z,5.82
2018-09-26T04:52:14.853Z,5.82
2018-09-26T04:53:14.844Z,5.90
2018-09-26T04:54:14.835Z,5.85
2018-09-26T04:55:14.845Z,5.91
2018-09-26T04:56:14.812Z,5.85
2018-09-26T04:57:14.821Z,5.89
2018-09-26T04:58:14.862Z,5.86
2018-09-26T04:59:14.783Z,5.86
2018-09-26T05:00:14.766Z,5.86
2018-09-26T05:01:14.756Z,5.96
2018-09-26T05:02:14.745Z,5.85
2018-09-26T05:03:14.745Z,5.89
2018-09-26T05:04:14.722Z,6.00
2018-09-26T05:05:14.711Z,6.01
2018-09-26T05:06:14.704Z,5.86
2018-09-26T05:07:14.710Z,5.99
2018-09-26T05:08:14.729Z,5.97
2018-09-26T05:09:14.670Z,6.00
2018-09-26T05:10:14.661Z,5.96
2018-09-26T05:11:14.649Z,5.99
2018-09-26T05:12:14.638Z,5.99
2018-09-26T05:13:14.647Z,5.97
2018-09-26T05:14:14.617Z,6.00
2018-09-26T05:15:14.605Z,5.99
2018-09-26T05:16:14.594Z,5.99
2018-09-26T05:17:14.585Z,5.99
2018-09-26T05:18:14.592Z,6.03
2018-09-26T05:19:14.576Z,5.96
2018-09-26T05:20:14.553Z,6.06
2018-09-26T05:21:14.546Z,6.00
2018-09-26T05:22:14.528Z,6.03
2018-09-26T05:23:14.695Z,6.04
2018-09-26T05:24:14.508Z,5.97
2018-09-26T05:25:14.497Z,6.03
2018-09-26T05:26:14.486Z,6.06
2018-09-26T05:27:14.475Z,6.00
2018-09-26T05:28:14.461Z,6.00
2018-09-26T05:29:14.472Z,5.99
2018-09-26T05:30:14.518Z,6.00
2018-09-26T05:31:14.432Z,6.03
2018-09-26T05:32:14.421Z,6.00
2018-09-26T05:33:14.408Z,6.00
2018-09-26T05:34:14.398Z,6.03
2018-09-26T05:35:14.402Z,6.04
2018-09-26T05:36:14.377Z,6.04
2018-09-26T05:37:14.365Z,6.01
2018-09-26T05:38:14.363Z,6.08
2018-09-26T05:39:14.359Z,5.97
2018-09-26T05:40:14.330Z,6.08
2018-09-26T05:41:14.323Z,6.00
2018-09-26T05:42:14.310Z,6.06
2018-09-26T05:43:14.297Z,6.03
2018-09-26T05:44:14.310Z,6.06
2018-09-26T05:45:14.277Z,6.08
2018-09-26T05:46:14.265Z,6.11
2018-09-26T05:47:14.256Z,6.01
2018-09-26T05:48:14.243Z,6.03
2018-09-26T05:49:14.232Z,6.11
2018-09-26T05:50:14.316Z,6.14
2018-09-26T05:51:14.211Z,6.12
2018-09-26T05:52:14.214Z,6.14
2018-09-26T05:53:14.189Z,6.12
2018-09-26T05:54:14.180Z,6.12
2018-09-26T05:55:14.182Z,6.15
2018-09-26T05:56:14.156Z,6.19
2018-09-26T05:57:14.160Z,6.19
2018-09-26T05:58:14.134Z,6.33
2018-09-26T05:59:14.126Z,6.22
2018-09-26T06:00:14.111Z,6.33
2018-09-26T06:01:14.103Z,6.37
2018-09-26T06:02:14.105Z,6.43
2018-09-26T06:03:14.080Z,6.46
2018-09-26T06:04:14.079Z,6.48
2018-09-26T06:05:14.063Z,6.43
2018-09-26T06:06:14.047Z,6.48
2018-09-26T06:07:14.050Z,6.52
2018-09-26T06:08:14.042Z,6.46
2018-09-26T06:09:14.012Z,6.54
2018-09-26T06:10:14.004Z,6.64
2018-09-26T06:11:13.992Z,6.62
2018-09-26T06:12:13.980Z,6.67
2018-09-26T06:13:13.970Z,6.67
2018-09-26T06:14:13.977Z,6.70
2018-09-26T06:15:13.948Z,6.73
2018-09-26T06:16:13.936Z,6.70
2018-09-26T06:17:13.941Z,6.70
2018-09-26T06:18:13.916Z,6.76
2018-09-26T06:19:13.914Z,6.81
2018-09-26T06:20:13.905Z,6.74
2018-09-26T06:21:13.882Z,6.81
2018-09-26T06:22:13.872Z,6.89
2018-09-26T06:23:13.858Z,6.76
2018-09-26T06:24:13.863Z,6.80
2018-09-26T06:25:13.838Z,6.88
2018-09-26T06:26:13.826Z,7.03
2018-09-26T06:27:13.832Z,6.98
2018-09-26T06:28:13.805Z,7.07
2018-09-26T06:29:13.808Z,7.13
2018-09-26T06:30:13.791Z,7.12
2018-09-26T06:31:13.773Z,7.10
2018-09-26T06:32:13.761Z,7.25
2018-09-26T06:33:13.749Z,7.27
2018-09-26T06:34:13.739Z,7.15
2018-09-26T06:35:13.739Z,7.28
2018-09-26T06:36:13.718Z,7.35
2018-09-26T06:37:13.706Z,7.30
2018-09-26T06:38:13.697Z,7.32
2018-09-26T06:39:13.685Z,7.37
2018-09-26T06:40:13.702Z,7.39
2018-09-26T06:41:13.664Z,7.39
2018-09-26T06:42:13.673Z,7.50
2018-09-26T06:43:13.640Z,7.57
2018-09-26T06:44:13.631Z,7.64
2018-09-26T06:45:13.618Z,7.67
2018-09-26T06:46:13.626Z,7.55
2018-09-26T06:47:13.599Z,7.63
2018-09-26T06:48:13.588Z,7.72
2018-09-26T06:49:13.578Z,7.75
2018-09-26T06:50:13.565Z,7.86
2018-09-26T06:51:13.571Z,7.86
2018-09-26T06:52:13.545Z,7.87
2018-09-26T06:53:13.533Z,7.90
2018-09-26T06:54:13.523Z,7.97
2018-09-26T06:55:13.511Z,8.04
2018-09-26T06:56:13.500Z,8.10
2018-09-26T06:57:13.501Z,8.08
2018-09-26T06:58:13.478Z,8.11
2018-09-26T06:59:13.482Z,8.20
2018-09-26T07:00:13.469Z,8.30
2018-09-26T07:01:13.450Z,8.25
2018-09-26T07:02:13.450Z,8.29
2018-09-26T07:03:13.422Z,8.30
2018-09-26T07:04:13.410Z,8.38
2018-09-26T07:05:13.418Z,8.44
2018-09-26T07:06:13.390Z,8.47
2018-09-26T07:07:13.403Z,8.50
2018-09-26T07:08:13.365Z,8.65
2018-09-26T07:09:13.355Z,8.59
2018-09-26T07:10:13.348Z,8.66
2018-09-26T07:11:13.348Z,8.76
2018-09-26T07:12:13.343Z,8.81
2018-09-26T07:13:13.322Z,8.83
2018-09-26T07:14:13.302Z,8.81
2018-09-26T07:15:13.287Z,8.91
2018-09-26T07:16:13.277Z,8.96
2018-09-26T07:17:13.313Z,8.99
2018-09-26T07:18:13.256Z,9.04
2018-09-26T07:19:13.241Z,8.99
2018-09-26T07:20:13.253Z,9.04
2018-09-26T07:21:13.221Z,9.02
2018-09-26T07:22:13.220Z,9.01
2018-09-26T07:23:13.212Z,8.99
2018-09-26T07:24:13.188Z,9.05
2018-09-26T07:25:13.199Z,9.02
2018-09-26T07:26:13.165Z,9.05
2018-09-26T07:27:13.154Z,9.04
2018-09-26T07:28:13.157Z,9.15
2018-09-26T07:29:13.162Z,9.17
2018-09-26T07:30:13.159Z,9.24
2018-09-26T07:31:13.112Z,9.28
2018-09-26T07:32:13.112Z,9.28
2018-09-26T07:33:13.088Z,9.38
2018-09-26T07:34:13.080Z,9.39
2018-09-26T07:35:13.069Z,9.39
2018-09-26T07:36:13.072Z,9.42
2018-09-26T07:37:13.047Z,9.53
2018-09-26T07:38:13.036Z,9.64
2018-09-26T07:39:13.026Z,9.65
2018-09-26T07:40:13.011Z,9.78
2018-09-26T07:41:13.016Z,9.79
2018-09-26T07:42:12.991Z,9.75
2018-09-26T07:43:12.980Z,9.79
2018-09-26T07:44:12.969Z,9.83
2018-09-26T07:45:12.980Z,9.90
2018-09-26T07:46:12.962Z,10.02
2018-09-26T07:47:12.937Z,9.96
2018-09-26T07:48:12.923Z,9.93
2018-09-26T07:49:12.913Z,10.04
2018-09-26T07:50:12.904Z,10.18
2018-09-26T07:51:12.908Z,10.23
2018-09-26T07:52:12.893Z,10.33
2018-09-26T07:53:13.067Z,10.34
2018-09-26T07:54:12.860Z,10.40
2018-09-26T07:55:12.847Z,10.44
2018-09-26T07:56:12.839Z,10.52
2018-09-26T07:57:12.840Z,10.55
2018-09-26T07:58:12.815Z,10.67
2018-09-26T07:59:12.848Z,10.64
2018-09-26T08:00:12.793Z,10.68
2018-09-26T08:01:12.783Z,10.71
2018-09-26T08:02:12.783Z,10.82
2018-09-26T08:03:12.759Z,10.84
2018-09-26T08:04:12.752Z,10.85
2018-09-26T08:05:12.753Z,10.86
2018-09-26T08:06:12.725Z,10.92
2018-09-26T08:07:12.719Z,10.96
2018-09-26T08:08:12.724Z,11.03
2018-09-26T08:09:12.693Z,10.99
2018-09-26T08:10:12.741Z,11.10
2018-09-26T08:11:12.689Z,11.17
2018-09-26T08:12:12.659Z,11.21
2018-09-26T08:13:12.687Z,11.27
2018-09-26T08:14:12.639Z,11.33
2018-09-26T08:15:12.626Z,11.33
2018-09-26T08:16:12.615Z,11.36
2018-09-26T08:17:12.606Z,11.40
2018-09-26T08:18:12.661Z,11.47
2018-09-26T08:19:12.596Z,11.62
2018-09-26T08:20:12.570Z,11.47
2018-09-26T08:21:12.569Z,11.58
2018-09-26T08:22:12.549Z,11.67
2018-09-26T08:23:12.536Z,11.65
2018-09-26T08:24:12.576Z,11.76
2018-09-26T08:25:12.517Z,11.94
2018-09-26T08:26:12.504Z,11.99
2018-09-26T08:27:12.514Z,12.09
2018-09-26T08:28:12.484Z,12.13
2018-09-26T08:29:12.472Z,12.09
2018-09-26T08:30:12.598Z,12.20
2018-09-26T08:31:12.455Z,12.09
2018-09-26T08:32:12.441Z,12.10
2018-09-26T08:33:12.428Z,12.13
2018-09-26T08:34:12.436Z,12.13
2018-09-26T08:35:12.407Z,12.13
2018-09-26T08:36:12.397Z,12.01
2018-09-26T08:37:12.388Z,12.12
2018-09-26T08:38:12.396Z,12.23
2018-09-26T08:39:12.362Z,12.32
2018-09-26T08:40:12.367Z,12.46
2018-09-26T08:41:12.340Z,12.52
2018-09-26T08:42:12.336Z,12.49
2018-09-26T08:43:12.321Z,12.54
2018-09-26T08:44:12.331Z,12.57
2018-09-26T08:45:12.298Z,12.64
2018-09-26T08:46:12.297Z,12.68
2018-09-26T08:47:12.277Z,12.65
2018-09-26T08:48:12.265Z,12.85
2018-09-26T08:49:12.294Z,12.83
2018-09-26T08:50:12.243Z,12.82
2018-09-26T08:51:12.234Z,12.90
2018-09-26T08:52:12.224Z,13.00
2018-09-26T08:53:12.214Z,12.97
2018-09-26T08:54:12.204Z,12.97
2018-09-26T08:55:12.214Z,13.07
2018-09-26T08:56:12.179Z,13.08
2018-09-26T08:57:12.173Z,13.25
2018-09-26T08:58:12.160Z,13.30
2018-09-26T08:59:12.147Z,13.42
2018-09-26T09:00:12.137Z,13.49
2018-09-26T09:01:12.136Z,13.60
2018-09-26T09:02:12.114Z,13.62
2018-09-26T09:03:12.104Z,13.49
2018-09-26T09:04:12.095Z,13.55
2018-09-26T09:05:12.079Z,13.55
2018-09-26T09:06:12.138Z,13.51
2018-09-26T09:07:12.071Z,13.49
2018-09-26T09:08:12.044Z,13.52
2018-09-26T09:09:12.033Z,13.55
2018-09-26T09:10:12.021Z,13.54
2018-09-26T09:11:12.012Z,13.54
2018-09-26T09:12:12.014Z,13.54
2018-09-26T09:13:11.988Z,13.64
2018-09-26T09:14:12.025Z,13.55
2018-09-26T09:15:11.965Z,13.57
2018-09-26T09:16:11.959Z,13.55
2018-09-26T09:17:11.944Z,13.57
2018-09-26T09:18:11.943Z,13.52
2018-09-26T09:19:11.920Z,13.55
2018-09-26T09:20:11.924Z,13.59
2018-09-26T09:21:11.897Z,13.55
2018-09-26T09:22:11.889Z,13.60
2018-09-26T09:23:11.873Z,13.60
2018-09-26T09:24:11.878Z,13.59
2018-09-26T09:25:11.851Z,13.62
2018-09-26T09:26:11.869Z,13.73
2018-09-26T09:27:11.898Z,13.71
2018-09-26T09:28:11.820Z,13.85
2018-09-26T09:29:11.824Z,13.87
2018-09-26T09:30:11.796Z,13.82
2018-09-26T09:31:11.785Z,13.79
2018-09-26T09:32:11.814Z,13.79
2018-09-26T09:33:11.764Z,13.70
2018-09-26T09:34:11.768Z,13.63
2018-09-26T09:35:11.755Z,13.59
2018-09-26T09:36:11.727Z,13.54
2018-09-26T09:37:11.720Z,13.55
2018-09-26T09:38:11.708Z,13.57
2018-09-26T09:39:11.696Z,13.69
2018-09-26T09:40:11.704Z,13.70
2018-09-26T09:41:11.671Z,13.78
2018-09-26T09:42:11.662Z,13.82
2018-09-26T09:43:11.652Z,13.81
2018-09-26T09:44:11.843Z,13.85
2018-09-26T09:45:11.629Z,13.99
2018-09-26T09:46:11.651Z,14.09
2018-09-26T09:47:11.603Z,14.17
2018-09-26T09:48:11.591Z,14.21
2018-09-26T09:49:11.583Z,14.21
2018-09-26T09:50:11.591Z,14.35
2018-09-26T09:51:11.560Z,14.28
2018-09-26T09:52:11.565Z,14.42
2018-09-26T09:53:11.537Z,14.47
2018-09-26T09:54:11.528Z,14.50
2018-09-26T09:55:11.515Z,14.46
2018-09-26T09:56:11.590Z,14.40
2018-09-26T09:57:11.494Z,14.46
2018-09-26T09:58:11.484Z,14.64
2018-09-26T09:59:11.474Z,14.72
2018-09-26T10:00:11.461Z,14.80
2018-09-26T10:01:11.449Z,14.86
2018-09-26T10:02:11.490Z,14.78
2018-09-26T10:03:11.561Z,14.95
2018-09-26T10:04:11.432Z,14.91
2018-09-26T10:05:11.408Z,14.98
2018-09-26T10:06:11.397Z,14.98
2018-09-26T10:07:11.384Z,14.98
2018-09-26T10:08:11.420Z,15.02
2018-09-26T10:09:11.374Z,14.96
2018-09-26T10:10:11.355Z,14.98
2018-09-26T10:11:11.340Z,14.92
2018-09-26T10:12:11.332Z,14.77
2018-09-26T10:13:11.320Z,14.78
2018-09-26T10:14:11.391Z,14.81
2018-09-26T10:15:11.300Z,14.73
2018-09-26T10:16:11.286Z,14.73
2018-09-26T10:17:11.278Z,14.80
2018-09-26T10:18:11.270Z,14.91
2018-09-26T10:19:11.274Z,14.95
2018-09-26T10:20:11.259Z,15.16
2018-09-26T10:21:11.233Z,15.28
2018-09-26T10:22:11.221Z,15.29
2018-09-26T10:23:11.209Z,15.32
2018-09-26T10:24:11.202Z,15.31
2018-09-26T10:25:11.281Z,15.36
2018-09-26T10:26:11.229Z,15.51
2018-09-26T10:27:11.168Z,15.46
2018-09-26T10:28:11.158Z,15.50
2018-09-26T10:29:11.146Z,15.53
2018-09-26T10:30:11.155Z,15.51
2018-09-26T10:31:11.123Z,15.44
2018-09-26T10:32:11.146Z,15.29
2018-09-26T10:33:11.105Z,15.36
2018-09-26T10:34:11.092Z,15.43
2018-09-26T10:35:11.081Z,15.49
2018-09-26T10:36:11.086Z,15.53
2018-09-26T10:37:11.060Z,15.50
2018-09-26T10:38:11.054Z,15.54
2018-09-26T10:39:11.036Z,15.64
2018-09-26T10:40:11.025Z,15.74
2018-09-26T10:41:11.029Z,15.80
2018-09-26T10:42:11.006Z,15.84
2018-09-26T10:43:11.000Z,15.90
2018-09-26T10:44:11.011Z,15.90
2018-09-26T10:45:10.971Z,15.90
2018-09-26T10:46:10.962Z,15.89
2018-09-26T10:47:10.988Z,15.90
2018-09-26T10:48:10.939Z,15.89
2018-09-26T10:49:10.929Z,15.87
2018-09-26T10:50:10.926Z,15.94
2018-09-26T10:51:10.907Z,16.00
2018-09-26T10:52:10.895Z,16.05
2018-09-26T10:53:10.894Z,16.09
2018-09-26T10:54:10.919Z,15.93
2018-09-26T10:55:10.864Z,15.97
2018-09-26T10:56:10.861Z,15.97
2018-09-26T10:57:10.841Z,15.96
2018-09-26T10:58:10.856Z,16.00
2018-09-26T10:59:10.821Z,15.94
2018-09-26T11:00:10.842Z,15.89
2018-09-26T11:01:10.795Z,15.90
2018-09-26T11:02:10.925Z,15.96
2018-09-26T11:03:10.776Z,16.07
2018-09-26T11:04:10.796Z,16.20
2018-09-26T11:05:10.753Z,16.30
2018-09-26T11:06:10.753Z,16.25
2018-09-26T11:07:10.730Z,16.24
2018-09-26T11:08:10.722Z,16.21
2018-09-26T11:09:10.709Z,16.25
2018-09-26T11:10:10.742Z,16.28
2018-09-26T11:11:10.687Z,16.43
2018-09-26T11:12:10.677Z,16.56
2018-09-26T11:13:10.664Z,16.66
2018-09-26T11:14:10.670Z,16.68
2018-09-26T11:15:10.659Z,16.63
2018-09-26T11:16:10.645Z,16.60
2018-09-26T11:17:10.624Z,16.57
2018-09-26T11:18:10.610Z,16.63
2018-09-26T11:19:10.599Z,16.53
2018-09-26T11:20:10.629Z,16.58
2018-09-26T11:21:10.614Z,16.68
2018-09-26T11:22:10.655Z,16.67
2018-09-26T11:23:10.556Z,16.60
2018-09-26T11:24:10.544Z,16.63
2018-09-26T11:25:10.551Z,16.68
2018-09-26T11:26:10.595Z,16.70
2018-09-26T11:27:10.515Z,16.60
2018-09-26T11:28:10.543Z,16.58
2018-09-26T11:29:10.493Z,16.49
2018-09-26T11:30:10.480Z,16.46
2018-09-26T11:31:10.485Z,16.58
2018-09-26T11:32:10.464Z,16.60
2018-09-26T11:33:10.472Z,16.60
2018-09-26T11:34:10.504Z,16.49
2018-09-26T11:35:10.426Z,16.53
2018-09-26T11:36:10.411Z,16.53
2018-09-26T11:37:10.403Z,16.43
2018-09-26T11:38:10.445Z,16.46
2018-09-26T11:39:10.398Z,16.53
2018-09-26T11:40:10.413Z,16.57
2018-09-26T11:41:10.360Z,16.66
2018-09-26T11:42:10.366Z,16.52
2018-09-26T11:43:10.336Z,16.66
2018-09-26T11:44:10.374Z,16.71
2018-09-26T11:45:10.333Z,16.85
2018-09-26T11:46:10.328Z,16.89
2018-09-26T11:47:10.295Z,17.06
2018-09-26T11:48:10.292Z,17.03
2018-09-26T11:49:10.270Z,17.06
2018-09-26T11:50:10.265Z,17.06
2018-09-26T11:51:10.249Z,17.16
2018-09-26T11:52:10.264Z,17.21
2018-09-26T11:53:10.237Z,17.22
2018-09-26T11:54:10.231Z,17.30
2018-09-26T11:55:10.204Z,17.48
2018-09-26T11:56:10.236Z,17.41
2018-09-26T11:57:10.185Z,17.33
2018-09-26T11:58:10.211Z,17.34
2018-09-26T11:59:10.176Z,17.34
2018-09-26T12:00:10.185Z,17.30
2018-09-26T12:01:10.155Z,17.44
2018-09-26T12:02:10.200Z,17.46
2018-09-26T12:03:10.119Z,17.49
2018-09-26T12:04:10.155Z,17.56
2018-09-26T12:05:10.122Z,17.62
2018-09-26T12:06:10.151Z,17.54
2018-09-26T12:07:10.662Z,17.63
2018-09-26T12:08:10.066Z,17.75
2018-09-26T12:09:10.052Z,17.78
2018-09-26T12:10:10.072Z,17.84
2018-09-26T12:11:10.049Z,17.81
2018-09-26T12:12:10.076Z,17.99
2018-09-26T12:13:10.013Z,17.86
2018-09-26T12:14:10.003Z,17.62
2018-09-26T12:15:09.987Z,17.62
2018-09-26T12:16:09.996Z,17.70
2018-09-26T12:17:09.968Z,17.75
2018-09-26T12:18:09.972Z,17.71
2018-09-26T12:19:09.976Z,17.62
2018-09-26T12:20:09.935Z,17.64
2018-09-26T12:21:09.925Z,17.66
2018-09-26T12:22:09.945Z,17.68
2018-09-26T12:23:09.909Z,17.63
2018-09-26T12:24:09.905Z,17.66
2018-09-26T12:25:09.893Z,17.55
2018-09-26T12:26:09.869Z,17.54
2018-09-26T12:27:09.870Z,17.59
2018-09-26T12:28:09.915Z,17.72
2018-09-26T12:29:09.845Z,17.84
2018-09-26T12:30:09.934Z,18.00
2018-09-26T12:31:09.812Z,18.15
2018-09-26T12:32:09.803Z,18.20
2018-09-26T12:33:09.790Z,18.15
2018-09-26T12:34:09.845Z,18.26
2018-09-26T12:35:09.776Z,18.30
2018-09-26T12:36:09.819Z,18.12
2018-09-26T12:37:09.751Z,18.10
2018-09-26T12:38:09.739Z,18.15
2018-09-26T12:39:09.728Z,18.21
2018-09-26T12:40:09.786Z,18.21
2018-09-26T12:41:09.708Z,18.15
2018-09-26T12:42:09.753Z,18.23
2018-09-26T12:43:09.689Z,18.26
2018-09-26T12:44:09.692Z,18.33
2018-09-26T12:45:09.665Z,18.23
2018-09-26T12:46:09.667Z,18.20
2018-09-26T12:47:09.712Z,18.14
2018-09-26T12:48:09.728Z,18.15
2018-09-26T12:49:09.637Z,18.15
2018-09-26T12:50:09.624Z,18.03
2018-09-26T12:51:09.605Z,17.99
2018-09-26T12:52:09.605Z,17.79
2018-09-26T12:53:09.582Z,17.72
2018-09-26T12:54:09.571Z,17.74
2018-09-26T12:55:09.577Z,17.84
2018-09-26T12:56:09.548Z,17.82
2018-09-26T12:57:09.540Z,17.84
2018-09-26T12:58:09.533Z,17.84
2018-09-26T12:59:09.520Z,17.81
2018-09-26T13:00:09.551Z,17.81
2018-09-26T13:01:09.498Z,17.89
2018-09-26T13:02:09.547Z,17.95
2018-09-26T13:03:09.476Z,18.02
2018-09-26T13:04:09.492Z,18.15
2018-09-26T13:05:09.457Z,18.25
2018-09-26T13:06:09.488Z,18.32
2018-09-26T13:07:09.433Z,18.44